sensor_id;sensor_type;location;lat;lon;timestamp;pressure;altitude;pressure_sealevel;temperature;humidity
75996;BME280;64681;49.738;9.004;2022-11-21T00:01:57;98500.53;;;6.78;82.96
75996;BME280;64681;49.738;9.004;2022-11-21T00:04:22;98504.16;;;6.73;82.83
75996;BME280;64681;49.738;9.004;2022-11-21T00:06:50;98480.06;;;6.78;82.37
75996;BME280;64681;49.738;9.004;2022-11-21T00:09:17;98488.03;;;6.57;82.35
75996;BME280;64681;49.738;9.004;2022-11-21T00:11:42;98489.66;;;6.71;82.54
75996;BME280;64681;49.738;9.004;2022-11-21T00:14:08;98485.72;;;6.56;82.79
75996;BME280;64681;49.738;9.004;2022-11-21T00:16:33;98485.22;;;6.62;83.20
75996;BME280;64681;49.738;9.004;2022-11-21T00:18:59;98477.25;;;6.20;84.36
75996;BME280;64681;49.738;9.004;2022-11-21T00:21:24;98476.34;;;6.16;83.28
75996;BME280;64681;49.738;9.004;2022-11-21T00:23:51;98505.69;;;6.32;83.94
75996;BME280;64681;49.738;9.004;2022-11-21T00:26:17;98511.41;;;6.43;83.86
75996;BME280;64681;49.738;9.004;2022-11-21T00:28:43;98502.59;;;6.51;83.46
75996;BME280;64681;49.738;9.004;2022-11-21T00:31:21;98486.38;;;6.31;83.59
75996;BME280;64681;49.738;9.004;2022-11-21T00:33:47;98462.31;;;6.58;82.50
75996;BME280;64681;49.738;9.004;2022-11-21T00:36:12;98471.88;;;6.29;83.68
75996;BME280;64681;49.738;9.004;2022-11-21T00:38:38;98478.69;;;6.39;83.23
75996;BME280;64681;49.738;9.004;2022-11-21T00:41:04;98469.88;;;6.47;83.46
75996;BME280;64681;49.738;9.004;2022-11-21T00:43:29;98483.06;;;6.34;83.54
75996;BME280;64681;49.738;9.004;2022-11-21T00:45:55;98481.78;;;6.41;84.11
75996;BME280;64681;49.738;9.004;2022-11-21T00:48:20;98470.91;;;6.55;83.38
75996;BME280;64681;49.738;9.004;2022-11-21T00:50:49;98460.59;;;6.11;84.33
75996;BME280;64681;49.738;9.004;2022-11-21T00:53:14;98447.13;;;6.25;83.78
75996;BME280;64681;49.738;9.004;2022-11-21T00:55:41;98438.13;;;6.17;83.27
75996;BME280;64681;49.738;9.004;2022-11-21T00:58:06;98445.03;;;6.09;84.02
75996;BME280;64681;49.738;9.004;2022-11-21T01:00:32;98428.94;;;5.84;84.92
75996;BME280;64681;49.738;9.004;2022-11-21T01:02:58;98427.44;;;6.05;84.50
75996;BME280;64681;49.738;9.004;2022-11-21T01:05:23;98420.41;;;6.09;83.88
75996;BME280;64681;49.738;9.004;2022-11-21T01:07:49;98431.69;;;5.97;84.30
75996;BME280;64681;49.738;9.004;2022-11-21T01:10:14;98427.78;;;5.94;84.17
75996;BME280;64681;49.738;9.004;2022-11-21T01:12:40;98423.66;;;5.84;84.70
75996;BME280;64681;49.738;9.004;2022-11-21T01:15:06;98411.56;;;5.75;84.81
75996;BME280;64681;49.738;9.004;2022-11-21T01:17:32;98422.88;;;5.54;86.02
75996;BME280;64681;49.738;9.004;2022-11-21T01:19:57;98428.47;;;5.52;86.22
75996;BME280;64681;49.738;9.004;2022-11-21T01:22:23;98430.28;;;5.69;86.01
75996;BME280;64681;49.738;9.004;2022-11-21T01:24:49;98411.19;;;5.85;84.79
75996;BME280;64681;49.738;9.004;2022-11-21T01:27:14;98423.16;;;5.91;84.78
75996;BME280;64681;49.738;9.004;2022-11-21T01:29:40;98414.53;;;5.73;85.90
75996;BME280;64681;49.738;9.004;2022-11-21T01:32:05;98433.63;;;5.88;85.81
75996;BME280;64681;49.738;9.004;2022-11-21T01:34:31;98425.38;;;6.10;85.54
75996;BME280;64681;49.738;9.004;2022-11-21T01:36:57;98435.72;;;6.03;86.20
75996;BME280;64681;49.738;9.004;2022-11-21T01:39:22;98422.63;;;5.98;85.43
75996;BME280;64681;49.738;9.004;2022-11-21T01:41:48;98422.28;;;6.08;85.73
75996;BME280;64681;49.738;9.004;2022-11-21T01:44:46;98417.81;;;6.00;85.44
75996;BME280;64681;49.738;9.004;2022-11-21T01:47:12;98410.91;;;6.08;85.32
75996;BME280;64681;49.738;9.004;2022-11-21T01:49:39;98424.03;;;6.04;85.62
75996;BME280;64681;49.738;9.004;2022-11-21T01:57:44;98408.53;;;6.15;83.38
75996;BME280;64681;49.738;9.004;2022-11-21T02:00:23;98410.59;;;6.09;84.10
75996;BME280;64681;49.738;9.004;2022-11-21T02:02:55;98406.13;;;6.43;82.51
75996;BME280;64681;49.738;9.004;2022-11-21T02:05:28;98405.41;;;6.13;83.09
75996;BME280;64681;49.738;9.004;2022-11-21T02:08:01;98403.31;;;5.97;84.34
75996;BME280;64681;49.738;9.004;2022-11-21T02:10:28;98394.38;;;5.81;83.96
75996;BME280;64681;49.738;9.004;2022-11-21T02:12:58;98405.97;;;5.97;83.92
75996;BME280;64681;49.738;9.004;2022-11-21T02:15:26;98406.72;;;5.98;83.15
75996;BME280;64681;49.738;9.004;2022-11-21T02:17:52;98399.44;;;5.95;84.00
75996;BME280;64681;49.738;9.004;2022-11-21T02:20:24;98396.38;;;5.84;83.71
75996;BME280;64681;49.738;9.004;2022-11-21T02:22:55;98398.34;;;5.96;83.79
75996;BME280;64681;49.738;9.004;2022-11-21T02:25:30;98393.41;;;5.85;83.19
75996;BME280;64681;49.738;9.004;2022-11-21T02:28:02;98397.69;;;5.78;83.55
75996;BME280;64681;49.738;9.004;2022-11-21T02:30:35;98385.13;;;5.66;84.48
75996;BME280;64681;49.738;9.004;2022-11-21T02:33:02;98392.19;;;5.83;82.97
75996;BME280;64681;49.738;9.004;2022-11-21T02:35:27;98387.63;;;5.62;83.83
75996;BME280;64681;49.738;9.004;2022-11-21T02:38:02;98395.16;;;5.81;83.38
75996;BME280;64681;49.738;9.004;2022-11-21T02:40:35;98387.84;;;5.78;83.41
75996;BME280;64681;49.738;9.004;2022-11-21T02:43:26;98380.22;;;5.77;83.04
75996;BME280;64681;49.738;9.004;2022-11-21T02:45:54;98388.56;;;5.88;83.02
75996;BME280;64681;49.738;9.004;2022-11-21T02:48:20;98388.19;;;5.77;82.86
75996;BME280;64681;49.738;9.004;2022-11-21T02:50:46;98391.34;;;5.91;82.77
75996;BME280;64681;49.738;9.004;2022-11-21T02:53:16;98394.31;;;5.68;83.81
75996;BME280;64681;49.738;9.004;2022-11-21T02:55:42;98378.91;;;5.62;83.73
75996;BME280;64681;49.738;9.004;2022-11-21T02:58:08;98392.38;;;5.78;83.24
75996;BME280;64681;49.738;9.004;2022-11-21T03:00:38;98378.34;;;5.77;82.42
75996;BME280;64681;49.738;9.004;2022-11-21T03:03:04;98378.53;;;5.72;82.72
75996;BME280;64681;49.738;9.004;2022-11-21T03:05:29;98384.34;;;5.65;83.24
75996;BME280;64681;49.738;9.004;2022-11-21T03:07:55;98382.03;;;5.64;82.91
75996;BME280;64681;49.738;9.004;2022-11-21T03:10:21;98384.84;;;5.59;83.61
75996;BME280;64681;49.738;9.004;2022-11-21T03:12:46;98383.84;;;5.72;82.72
75996;BME280;64681;49.738;9.004;2022-11-21T03:15:14;98383.56;;;5.65;83.80
75996;BME280;64681;49.738;9.004;2022-11-21T03:17:40;98388.00;;;5.52;83.96
75996;BME280;64681;49.738;9.004;2022-11-21T03:20:07;98393.91;;;5.49;83.83
75996;BME280;64681;49.738;9.004;2022-11-21T03:22:33;98397.72;;;5.69;83.57
75996;BME280;64681;49.738;9.004;2022-11-21T03:24:59;98395.22;;;5.94;81.86
75996;BME280;64681;49.738;9.004;2022-11-21T03:27:25;98397.22;;;5.76;82.94
75996;BME280;64681;49.738;9.004;2022-11-21T03:29:51;98398.19;;;5.71;82.87
75996;BME280;64681;49.738;9.004;2022-11-21T03:32:16;98409.50;;;5.80;82.81
75996;BME280;64681;49.738;9.004;2022-11-21T03:34:42;98411.06;;;5.51;83.48
75996;BME280;64681;49.738;9.004;2022-11-21T03:37:08;98401.25;;;5.52;84.11
75996;BME280;64681;49.738;9.004;2022-11-21T03:39:33;98407.00;;;5.54;83.75
75996;BME280;64681;49.738;9.004;2022-11-21T03:41:59;98408.31;;;5.69;83.46
75996;BME280;64681;49.738;9.004;2022-11-21T03:44:25;98396.22;;;5.59;82.82
75996;BME280;64681;49.738;9.004;2022-11-21T03:46:50;98404.69;;;5.74;82.48
75996;BME280;64681;49.738;9.004;2022-11-21T03:49:16;98411.78;;;5.61;83.20
75996;BME280;64681;49.738;9.004;2022-11-21T03:51:43;98402.88;;;5.65;83.70
75996;BME280;64681;49.738;9.004;2022-11-21T03:54:08;98412.78;;;5.77;82.63
75996;BME280;64681;49.738;9.004;2022-11-21T03:56:34;98408.59;;;5.97;82.75
75996;BME280;64681;49.738;9.004;2022-11-21T03:59:00;98407.72;;;5.63;83.66
75996;BME280;64681;49.738;9.004;2022-11-21T04:01:25;98408.69;;;5.59;84.18
75996;BME280;64681;49.738;9.004;2022-11-21T04:03:51;98410.69;;;5.62;83.61
75996;BME280;64681;49.738;9.004;2022-11-21T04:06:18;98403.88;;;5.82;83.66
75996;BME280;64681;49.738;9.004;2022-11-21T04:08:45;98420.50;;;5.91;82.55
75996;BME280;64681;49.738;9.004;2022-11-21T04:11:11;98423.13;;;6.00;83.00
75996;BME280;64681;49.738;9.004;2022-11-21T04:13:36;98414.19;;;6.05;82.09
75996;BME280;64681;49.738;9.004;2022-11-21T04:16:02;98425.44;;;6.01;81.91
75996;BME280;64681;49.738;9.004;2022-11-21T04:18:28;98416.78;;;5.83;83.31
75996;BME280;64681;49.738;9.004;2022-11-21T04:20:57;98417.63;;;5.75;82.95
75996;BME280;64681;49.738;9.004;2022-11-21T04:23:24;98407.22;;;5.70;82.93
75996;BME280;64681;49.738;9.004;2022-11-21T04:25:49;98414.59;;;5.85;82.73
75996;BME280;64681;49.738;9.004;2022-11-21T04:28:15;98424.50;;;5.97;82.50
75996;BME280;64681;49.738;9.004;2022-11-21T04:30:41;98420.28;;;6.05;83.03
75996;BME280;64681;49.738;9.004;2022-11-21T04:33:06;98432.47;;;5.97;82.48
75996;BME280;64681;49.738;9.004;2022-11-21T04:35:32;98427.25;;;6.10;82.10
75996;BME280;64681;49.738;9.004;2022-11-21T04:37:57;98427.72;;;5.82;83.42
75996;BME280;64681;49.738;9.004;2022-11-21T04:40:23;98427.66;;;6.21;82.38
75996;BME280;64681;49.738;9.004;2022-11-21T04:42:48;98433.41;;;6.23;81.80
75996;BME280;64681;49.738;9.004;2022-11-21T04:45:15;98431.16;;;6.12;82.64
75996;BME280;64681;49.738;9.004;2022-11-21T04:47:44;98421.56;;;5.99;83.30
75996;BME280;64681;49.738;9.004;2022-11-21T04:50:12;98433.38;;;6.01;82.41
75996;BME280;64681;49.738;9.004;2022-11-21T04:52:39;98422.06;;;6.13;82.19
75996;BME280;64681;49.738;9.004;2022-11-21T04:55:05;98418.66;;;6.13;82.80
75996;BME280;64681;49.738;9.004;2022-11-21T04:57:31;98428.25;;;5.96;83.06
75996;BME280;64681;49.738;9.004;2022-11-21T04:59:57;98411.69;;;6.08;81.86
75996;BME280;64681;49.738;9.004;2022-11-21T05:02:23;98415.09;;;5.79;83.14
75996;BME280;64681;49.738;9.004;2022-11-21T05:04:49;98414.41;;;5.91;82.13
75996;BME280;64681;49.738;9.004;2022-11-21T05:07:16;98423.41;;;5.98;81.64
75996;BME280;64681;49.738;9.004;2022-11-21T05:09:42;98420.09;;;5.80;83.16
75996;BME280;64681;49.738;9.004;2022-11-21T05:12:09;98426.50;;;6.09;82.13
75996;BME280;64681;49.738;9.004;2022-11-21T05:14:53;98428.44;;;6.21;81.10
75996;BME280;64681;49.738;9.004;2022-11-21T05:17:19;98420.34;;;6.17;81.31
75996;BME280;64681;49.738;9.004;2022-11-21T05:19:44;98430.84;;;6.35;81.35
75996;BME280;64681;49.738;9.004;2022-11-21T05:22:10;98428.59;;;6.37;81.05
75996;BME280;64681;49.738;9.004;2022-11-21T05:24:35;98419.19;;;6.27;81.47
75996;BME280;64681;49.738;9.004;2022-11-21T05:27:01;98420.16;;;6.23;81.83
75996;BME280;64681;49.738;9.004;2022-11-21T05:29:26;98422.34;;;6.42;80.65
75996;BME280;64681;49.738;9.004;2022-11-21T05:31:52;98419.09;;;6.36;80.76
75996;BME280;64681;49.738;9.004;2022-11-21T05:34:17;98427.75;;;6.45;80.84
75996;BME280;64681;49.738;9.004;2022-11-21T05:36:43;98431.66;;;6.27;82.02
75996;BME280;64681;49.738;9.004;2022-11-21T05:39:08;98429.56;;;6.54;80.95
75996;BME280;64681;49.738;9.004;2022-11-21T05:41:34;98422.84;;;6.56;80.11
75996;BME280;64681;49.738;9.004;2022-11-21T05:43:59;98436.59;;;6.71;80.42
75996;BME280;64681;49.738;9.004;2022-11-21T05:46:25;98432.19;;;6.75;79.91
75996;BME280;64681;49.738;9.004;2022-11-21T05:48:52;98437.72;;;6.70;79.52
75996;BME280;64681;49.738;9.004;2022-11-21T05:51:19;98435.59;;;6.63;80.13
75996;BME280;64681;49.738;9.004;2022-11-21T05:53:47;98431.34;;;6.49;80.29
75996;BME280;64681;49.738;9.004;2022-11-21T05:56:18;98431.38;;;6.41;80.45
75996;BME280;64681;49.738;9.004;2022-11-21T05:58:44;98428.56;;;6.25;80.74
75996;BME280;64681;49.738;9.004;2022-11-21T06:01:11;98441.69;;;6.42;79.87
75996;BME280;64681;49.738;9.004;2022-11-21T06:03:40;98439.16;;;6.46;79.29
75996;BME280;64681;49.738;9.004;2022-11-21T06:06:08;98431.88;;;6.55;79.84
75996;BME280;64681;49.738;9.004;2022-11-21T06:08:39;98438.38;;;6.79;79.43
75996;BME280;64681;49.738;9.004;2022-11-21T06:11:07;98438.16;;;6.72;79.18
75996;BME280;64681;49.738;9.004;2022-11-21T06:13:33;98441.41;;;6.56;80.34
75996;BME280;64681;49.738;9.004;2022-11-21T06:16:08;98441.22;;;6.61;79.13
75996;BME280;64681;49.738;9.004;2022-11-21T06:18:37;98431.13;;;6.55;79.76
75996;BME280;64681;49.738;9.004;2022-11-21T06:21:08;98436.50;;;6.25;81.26
75996;BME280;64681;49.738;9.004;2022-11-21T06:23:35;98437.28;;;6.46;79.71
75996;BME280;64681;49.738;9.004;2022-11-21T06:26:04;98434.81;;;6.20;80.10
75996;BME280;64681;49.738;9.004;2022-11-21T06:28:32;98430.28;;;6.42;79.81
75996;BME280;64681;49.738;9.004;2022-11-21T06:31:16;98434.13;;;6.53;78.67
75996;BME280;64681;49.738;9.004;2022-11-21T06:33:42;98445.22;;;6.46;78.71
75996;BME280;64681;49.738;9.004;2022-11-21T06:36:11;98439.66;;;6.18;80.42
75996;BME280;64681;49.738;9.004;2022-11-21T06:38:37;98448.88;;;6.21;80.36
75996;BME280;64681;49.738;9.004;2022-11-21T06:41:20;98437.06;;;6.52;79.06
75996;BME280;64681;49.738;9.004;2022-11-21T06:43:47;98445.47;;;6.54;79.47
75996;BME280;64681;49.738;9.004;2022-11-21T06:46:14;98446.78;;;6.47;78.59
75996;BME280;64681;49.738;9.004;2022-11-21T06:48:40;98455.13;;;6.58;78.33
75996;BME280;64681;49.738;9.004;2022-11-21T06:53:42;98453.22;;;6.80;77.99
75996;BME280;64681;49.738;9.004;2022-11-21T06:56:09;98449.56;;;6.72;78.35
75996;BME280;64681;49.738;9.004;2022-11-21T06:58:35;98455.72;;;6.43;79.14
75996;BME280;64681;49.738;9.004;2022-11-21T07:01:09;98462.81;;;6.72;78.73
75996;BME280;64681;49.738;9.004;2022-11-21T07:03:35;98460.56;;;6.62;78.00
75996;BME280;64681;49.738;9.004;2022-11-21T07:06:02;98441.22;;;6.40;78.26
75996;BME280;64681;49.738;9.004;2022-11-21T07:08:29;98446.63;;;6.31;78.66
75996;BME280;64681;49.738;9.004;2022-11-21T07:11:00;98447.69;;;6.52;78.16
75996;BME280;64681;49.738;9.004;2022-11-21T07:13:26;98453.91;;;6.89;77.79
75996;BME280;64681;49.738;9.004;2022-11-21T07:15:55;98438.47;;;6.70;77.36
75996;BME280;64681;49.738;9.004;2022-11-21T07:18:25;98459.47;;;6.63;77.55
75996;BME280;64681;49.738;9.004;2022-11-21T07:20:51;98461.63;;;6.82;77.91
75996;BME280;64681;49.738;9.004;2022-11-21T07:23:16;98436.06;;;6.77;77.09
75996;BME280;64681;49.738;9.004;2022-11-21T07:25:42;98441.91;;;7.04;76.81
75996;BME280;64681;49.738;9.004;2022-11-21T07:28:08;98462.13;;;6.96;77.23
75996;BME280;64681;49.738;9.004;2022-11-21T07:30:37;98461.00;;;6.97;77.33
75996;BME280;64681;49.738;9.004;2022-11-21T07:33:05;98461.13;;;7.01;77.68
75996;BME280;64681;49.738;9.004;2022-11-21T07:35:32;98450.50;;;6.89;78.21
75996;BME280;64681;49.738;9.004;2022-11-21T07:37:59;98458.47;;;7.01;78.02
75996;BME280;64681;49.738;9.004;2022-11-21T07:40:26;98460.56;;;6.95;77.02
75996;BME280;64681;49.738;9.004;2022-11-21T07:42:52;98443.66;;;7.00;77.42
75996;BME280;64681;49.738;9.004;2022-11-21T07:45:18;98429.91;;;6.86;77.04
75996;BME280;64681;49.738;9.004;2022-11-21T07:47:43;98446.66;;;6.99;77.96
75996;BME280;64681;49.738;9.004;2022-11-21T07:50:11;98453.69;;;6.94;77.18
75996;BME280;64681;49.738;9.004;2022-11-21T07:52:37;98461.47;;;7.00;77.25
75996;BME280;64681;49.738;9.004;2022-11-21T07:55:03;98446.31;;;6.67;77.75
75996;BME280;64681;49.738;9.004;2022-11-21T07:57:31;98477.41;;;7.12;76.82
75996;BME280;64681;49.738;9.004;2022-11-21T07:59:57;98467.66;;;6.70;77.89
75996;BME280;64681;49.738;9.004;2022-11-21T08:02:25;98475.63;;;7.04;77.78
75996;BME280;64681;49.738;9.004;2022-11-21T08:04:52;98452.91;;;7.27;75.30
75996;BME280;64681;49.738;9.004;2022-11-21T08:07:20;98467.63;;;7.37;75.14
75996;BME280;64681;49.738;9.004;2022-11-21T08:09:46;98475.94;;;7.48;75.41
75996;BME280;64681;49.738;9.004;2022-11-21T08:12:12;98458.69;;;7.67;74.60
75996;BME280;64681;49.738;9.004;2022-11-21T08:14:39;98459.22;;;7.35;74.88
75996;BME280;64681;49.738;9.004;2022-11-21T08:17:05;98468.75;;;7.49;74.71
75996;BME280;64681;49.738;9.004;2022-11-21T08:19:31;98476.00;;;6.81;77.36
75996;BME280;64681;49.738;9.004;2022-11-21T08:21:57;98449.38;;;6.90;77.99
75996;BME280;64681;49.738;9.004;2022-11-21T08:24:22;98461.09;;;7.35;76.19
75996;BME280;64681;49.738;9.004;2022-11-21T08:26:49;98468.84;;;7.65;75.02
75996;BME280;64681;49.738;9.004;2022-11-21T08:29:22;98462.31;;;7.74;75.49
75996;BME280;64681;49.738;9.004;2022-11-21T08:31:53;98431.78;;;7.56;74.69
75996;BME280;64681;49.738;9.004;2022-11-21T08:34:19;98454.03;;;7.76;74.76
75996;BME280;64681;49.738;9.004;2022-11-21T08:36:44;98442.63;;;7.75;73.45
75996;BME280;64681;49.738;9.004;2022-11-21T08:39:10;98446.94;;;7.80;73.97
75996;BME280;64681;49.738;9.004;2022-11-21T08:41:35;98462.13;;;7.80;73.04
75996;BME280;64681;49.738;9.004;2022-11-21T08:44:20;98457.84;;;7.17;76.09
75996;BME280;64681;49.738;9.004;2022-11-21T08:46:45;98460.75;;;7.36;74.87
75996;BME280;64681;49.738;9.004;2022-11-21T08:49:11;98451.25;;;7.48;74.47
75996;BME280;64681;49.738;9.004;2022-11-21T08:51:36;98447.28;;;7.54;74.85
75996;BME280;64681;49.738;9.004;2022-11-21T08:54:02;98443.44;;;7.05;75.84
75996;BME280;64681;49.738;9.004;2022-11-21T08:56:28;98444.50;;;7.50;74.00
75996;BME280;64681;49.738;9.004;2022-11-21T08:58:53;98452.16;;;7.64;74.35
75996;BME280;64681;49.738;9.004;2022-11-21T09:01:20;98445.75;;;7.65;74.29
75996;BME280;64681;49.738;9.004;2022-11-21T09:03:46;98452.03;;;7.85;73.54
75996;BME280;64681;49.738;9.004;2022-11-21T09:06:12;98446.84;;;7.64;73.16
75996;BME280;64681;49.738;9.004;2022-11-21T09:08:38;98445.94;;;7.35;73.61
75996;BME280;64681;49.738;9.004;2022-11-21T09:11:05;98452.13;;;7.39;75.31
75996;BME280;64681;49.738;9.004;2022-11-21T09:13:32;98411.19;;;7.53;73.88
75996;BME280;64681;49.738;9.004;2022-11-21T09:15:59;98455.56;;;7.89;73.65
75996;BME280;64681;49.738;9.004;2022-11-21T09:18:43;98470.28;;;7.99;73.22
75996;BME280;64681;49.738;9.004;2022-11-21T09:21:16;98466.19;;;8.02;73.83
75996;BME280;64681;49.738;9.004;2022-11-21T09:23:42;98452.47;;;8.53;70.66
75996;BME280;64681;49.738;9.004;2022-11-21T09:26:08;98464.38;;;8.71;70.10
75996;BME280;64681;49.738;9.004;2022-11-21T09:28:33;98413.91;;;8.47;70.37
75996;BME280;64681;49.738;9.004;2022-11-21T09:31:02;98461.19;;;8.94;69.57
75996;BME280;64681;49.738;9.004;2022-11-21T09:33:28;98452.94;;;8.30;70.50
75996;BME280;64681;49.738;9.004;2022-11-21T09:35:57;98425.34;;;7.94;70.83
75996;BME280;64681;49.738;9.004;2022-11-21T09:38:23;98442.03;;;8.07;70.32
75996;BME280;64681;49.738;9.004;2022-11-21T09:40:51;98452.59;;;8.32;69.23
75996;BME280;64681;49.738;9.004;2022-11-21T09:43:38;98436.66;;;7.66;70.04
75996;BME280;64681;49.738;9.004;2022-11-21T09:46:17;98447.56;;;8.02;70.76
75996;BME280;64681;49.738;9.004;2022-11-21T09:49:04;98420.59;;;7.38;71.38
75996;BME280;64681;49.738;9.004;2022-11-21T09:51:33;98461.34;;;7.54;71.19
75996;BME280;64681;49.738;9.004;2022-11-21T09:54:27;98461.44;;;7.70;71.38
75996;BME280;64681;49.738;9.004;2022-11-21T09:56:56;98453.53;;;7.12;72.32
75996;BME280;64681;49.738;9.004;2022-11-21T09:59:34;98453.69;;;6.61;73.72
75996;BME280;64681;49.738;9.004;2022-11-21T10:02:07;98447.53;;;7.03;73.52
75996;BME280;64681;49.738;9.004;2022-11-21T10:04:37;98432.66;;;6.77;73.24
75996;BME280;64681;49.738;9.004;2022-11-21T10:07:07;98436.66;;;6.83;73.11
75996;BME280;64681;49.738;9.004;2022-11-21T10:16:02;98403.72;;;6.96;72.04
75996;BME280;64681;49.738;9.004;2022-11-21T10:21:47;98414.56;;;6.91;72.73
75996;BME280;64681;49.738;9.004;2022-11-21T10:27:20;98401.81;;;6.85;72.85
75996;BME280;64681;49.738;9.004;2022-11-21T10:29:56;98410.59;;;6.97;73.02
75996;BME280;64681;49.738;9.004;2022-11-21T10:32:37;98419.53;;;6.93;72.98
75996;BME280;64681;49.738;9.004;2022-11-21T10:37:44;98397.59;;;7.54;70.86
75996;BME280;64681;49.738;9.004;2022-11-21T10:44:38;98397.00;;;7.86;70.54
75996;BME280;64681;49.738;9.004;2022-11-21T10:46:59;98385.72;;;7.89;70.55
75996;BME280;64681;49.738;9.004;2022-11-21T10:49:29;98379.63;;;7.64;70.10
75996;BME280;64681;49.738;9.004;2022-11-21T10:52:22;98381.31;;;8.09;68.32
75996;BME280;64681;49.738;9.004;2022-11-21T11:00:13;98378.03;;;7.87;68.49
75996;BME280;64681;49.738;9.004;2022-11-21T11:02:42;98366.75;;;7.90;67.96
75996;BME280;64681;49.738;9.004;2022-11-21T11:05:34;98361.69;;;7.73;69.61
75996;BME280;64681;49.738;9.004;2022-11-21T11:08:11;98346.13;;;7.47;69.83
75996;BME280;64681;49.738;9.004;2022-11-21T11:10:40;98360.44;;;7.83;69.00
75996;BME280;64681;49.738;9.004;2022-11-21T11:13:15;98335.09;;;7.85;67.85
75996;BME280;64681;49.738;9.004;2022-11-21T11:19:24;98335.31;;;7.92;68.38
75996;BME280;64681;49.738;9.004;2022-11-21T11:32:35;98318.75;;;9.36;63.82
75996;BME280;64681;49.738;9.004;2022-11-21T11:34:59;98316.53;;;9.77;63.18
75996;BME280;64681;49.738;9.004;2022-11-21T11:40:20;98291.53;;;9.11;61.83
75996;BME280;64681;49.738;9.004;2022-11-21T11:49:36;98282.56;;;9.35;59.47
75996;BME280;64681;49.738;9.004;2022-11-21T11:52:26;98270.50;;;9.06;61.49
75996;BME280;64681;49.738;9.004;2022-11-21T11:55:00;98248.72;;;8.52;62.87
75996;BME280;64681;49.738;9.004;2022-11-21T11:57:30;98270.88;;;8.56;63.01
75996;BME280;64681;49.738;9.004;2022-11-21T12:00:32;98269.59;;;8.50;63.87
75996;BME280;64681;49.738;9.004;2022-11-21T12:05:50;98256.88;;;8.59;65.03
75996;BME280;64681;49.738;9.004;2022-11-21T12:14:46;98250.00;;;7.98;64.78
75996;BME280;64681;49.738;9.004;2022-11-21T12:20:20;98234.59;;;8.35;66.61
75996;BME280;64681;49.738;9.004;2022-11-21T12:22:50;98241.50;;;8.84;63.61
75996;BME280;64681;49.738;9.004;2022-11-21T12:25:22;98227.66;;;8.95;64.53
75996;BME280;64681;49.738;9.004;2022-11-21T12:27:53;98227.28;;;9.32;63.50
75996;BME280;64681;49.738;9.004;2022-11-21T12:41:31;98196.75;;;9.65;62.10
75996;BME280;64681;49.738;9.004;2022-11-21T12:53:55;98192.81;;;9.39;62.01
75996;BME280;64681;49.738;9.004;2022-11-21T12:56:48;98194.94;;;9.30;63.21
75996;BME280;64681;49.738;9.004;2022-11-21T12:59:24;98167.66;;;9.17;62.62
75996;BME280;64681;49.738;9.004;2022-11-21T13:04:45;98183.78;;;9.24;62.95
75996;BME280;64681;49.738;9.004;2022-11-21T13:07:12;98184.16;;;9.07;64.50
75996;BME280;64681;49.738;9.004;2022-11-21T13:09:46;98175.66;;;8.81;66.03
75996;BME280;64681;49.738;9.004;2022-11-21T13:12:33;98164.72;;;8.86;65.27
75996;BME280;64681;49.738;9.004;2022-11-21T13:15:14;98168.72;;;8.29;68.48
75996;BME280;64681;49.738;9.004;2022-11-21T13:20:39;98153.13;;;7.67;72.07
75996;BME280;64681;49.738;9.004;2022-11-21T13:23:35;98158.47;;;7.67;72.36
75996;BME280;64681;49.738;9.004;2022-11-21T13:28:47;98145.63;;;7.85;71.45
75996;BME280;64681;49.738;9.004;2022-11-21T13:31:32;98142.88;;;7.81;72.40
75996;BME280;64681;49.738;9.004;2022-11-21T13:33:59;98132.50;;;7.76;73.21
75996;BME280;64681;49.738;9.004;2022-11-21T13:55:49;98109.53;;;7.68;73.99
75996;BME280;64681;49.738;9.004;2022-11-21T14:07:28;98091.09;;;7.75;74.28
75996;BME280;64681;49.738;9.004;2022-11-21T14:09:58;98078.75;;;7.83;73.60
75996;BME280;64681;49.738;9.004;2022-11-21T14:12:32;98085.63;;;7.68;73.70
75996;BME280;64681;49.738;9.004;2022-11-21T14:17:47;98073.34;;;7.63;73.84
75996;BME280;64681;49.738;9.004;2022-11-21T14:25:18;98052.84;;;7.32;75.06
75996;BME280;64681;49.738;9.004;2022-11-21T14:27:48;98046.97;;;7.54;74.16
75996;BME280;64681;49.738;9.004;2022-11-21T14:30:27;98026.28;;;7.64;73.82
75996;BME280;64681;49.738;9.004;2022-11-21T14:32:53;98028.19;;;7.63;74.25
75996;BME280;64681;49.738;9.004;2022-11-21T14:35:21;98041.22;;;7.52;75.58
75996;BME280;64681;49.738;9.004;2022-11-21T14:37:48;98024.00;;;7.46;75.64
75996;BME280;64681;49.738;9.004;2022-11-21T14:40:22;98029.31;;;7.62;74.86
75996;BME280;64681;49.738;9.004;2022-11-21T14:42:48;98032.28;;;7.44;75.71
75996;BME280;64681;49.738;9.004;2022-11-21T14:45:22;98024.03;;;7.34;75.91
75996;BME280;64681;49.738;9.004;2022-11-21T14:47:49;98036.69;;;7.24;76.42
75996;BME280;64681;49.738;9.004;2022-11-21T14:50:28;98029.34;;;7.34;75.43
75996;BME280;64681;49.738;9.004;2022-11-21T14:52:55;98023.56;;;7.00;76.51
75996;BME280;64681;49.738;9.004;2022-11-21T14:55:29;98035.94;;;7.24;75.18
75996;BME280;64681;49.738;9.004;2022-11-21T14:57:58;98033.16;;;7.04;75.74
75996;BME280;64681;49.738;9.004;2022-11-21T15:00:27;98030.78;;;6.87;76.20
75996;BME280;64681;49.738;9.004;2022-11-21T15:02:57;98038.16;;;6.65;77.50
75996;BME280;64681;49.738;9.004;2022-11-21T15:05:33;98021.97;;;6.42;77.78
75996;BME280;64681;49.738;9.004;2022-11-21T15:11:44;98012.84;;;6.27;77.81
75996;BME280;64681;49.738;9.004;2022-11-21T15:14:23;98011.63;;;6.12;77.85
75996;BME280;64681;49.738;9.004;2022-11-21T15:20:19;97941.44;;;5.44;79.02
75996;BME280;64681;49.738;9.004;2022-11-21T15:39:21;97947.69;;;4.81;81.50
75996;BME280;64681;49.738;9.004;2022-11-21T16:25:22;97826.13;;;4.14;82.68
75996;BME280;64681;49.738;9.004;2022-11-21T16:27:48;97819.94;;;4.09;83.45
75996;BME280;64681;49.738;9.004;2022-11-21T16:30:14;97806.78;;;4.22;82.13
75996;BME280;64681;49.738;9.004;2022-11-21T16:32:39;97801.47;;;4.09;82.65
75996;BME280;64681;49.738;9.004;2022-11-21T16:35:05;97791.03;;;4.25;81.94
75996;BME280;64681;49.738;9.004;2022-11-21T16:37:31;97787.31;;;4.26;81.81
75996;BME280;64681;49.738;9.004;2022-11-21T16:39:57;97776.44;;;4.07;82.56
75996;BME280;64681;49.738;9.004;2022-11-21T16:42:23;97779.94;;;3.99;82.90